createdAt,value
2023-02-11T00:01:34.001Z,1.58
2023-02-11T00:04:01.617Z,1.54
2023-02-11T00:06:29.587Z,1.56
2023-02-11T00:08:56.652Z,1.53
2023-02-11T00:11:26.386Z,1.54
2023-02-11T00:13:52.819Z,1.53
2023-02-11T00:16:20.786Z,1.52
2023-02-11T00:18:47.483Z,1.60
2023-02-11T00:21:16.989Z,1.55
2023-02-11T00:23:44.452Z,1.56
2023-02-11T00:26:19.376Z,1.57
2023-02-11T00:28:47.414Z,1.47
2023-02-11T00:31:15.124Z,1.52
2023-02-11T00:33:41.970Z,1.49
2023-02-11T00:36:11.945Z,1.50
2023-02-11T00:38:38.229Z,1.52
2023-02-11T00:41:04.866Z,1.51
2023-02-11T00:43:31.182Z,1.50
2023-02-11T00:45:57.626Z,1.57
2023-02-11T00:48:23.953Z,1.65
2023-02-11T00:50:50.473Z,1.66
2023-02-11T00:53:16.841Z,1.71
2023-02-11T00:55:43.193Z,1.75
2023-02-11T00:58:09.496Z,1.76
2023-02-11T01:00:35.819Z,1.76
2023-02-11T01:03:02.197Z,1.82
2023-02-11T01:05:28.825Z,1.86
2023-02-11T01:07:55.163Z,1.86
2023-02-11T01:10:21.730Z,1.83
2023-02-11T01:12:48.083Z,1.90
2023-02-11T01:15:17.077Z,1.94
2023-02-11T01:17:43.414Z,1.94
2023-02-11T01:20:15.094Z,1.92
2023-02-11T01:22:41.505Z,1.93
2023-02-11T01:25:08.626Z,1.95
2023-02-11T01:27:35.317Z,1.96
2023-02-11T01:30:01.650Z,1.94
2023-02-11T01:32:27.975Z,1.98
2023-02-11T01:34:54.370Z,2.02
2023-02-11T01:37:20.723Z,1.98
2023-02-11T01:39:47.016Z,2.03
2023-02-11T01:42:20.562Z,2.03
2023-02-11T01:44:49.485Z,2.05
2023-02-11T01:47:15.787Z,2.02
2023-02-11T01:49:45.780Z,2.03
2023-02-11T01:52:22.136Z,2.03
2023-02-11T01:55:17.784Z,2.01
2023-02-11T01:57:48.605Z,2.06
2023-02-11T02:00:17.682Z,2.13
2023-02-11T02:02:50.679Z,2.10
2023-02-11T02:05:35.585Z,2.12
2023-02-11T02:08:29.550Z,2.14
2023-02-11T02:10:56.713Z,2.12
2023-02-11T02:13:23.681Z,2.21
2023-02-11T02:15:56.047Z,2.20
2023-02-11T02:18:36.033Z,2.20
2023-02-11T02:21:45.406Z,2.27
2023-02-11T02:24:49.182Z,2.28
2023-02-11T02:27:33.775Z,2.26
2023-02-11T02:30:21.872Z,2.24
2023-02-11T02:33:22.291Z,2.22
2023-02-11T02:36:00.597Z,2.24
2023-02-11T02:38:52.154Z,2.23
2023-02-11T02:41:23.049Z,2.23
2023-02-11T02:43:51.392Z,2.23
2023-02-11T02:46:19.802Z,2.19
2023-02-11T02:48:49.613Z,2.13
2023-02-11T02:51:53.683Z,2.16
2023-02-11T02:54:57.184Z,2.12
2023-02-11T02:57:33.698Z,2.11
2023-02-11T03:00:13.619Z,2.11
2023-02-11T03:02:55.436Z,2.14
2023-02-11T03:05:31.458Z,2.13
2023-02-11T03:08:18.597Z,2.14
2023-02-11T03:10:48.958Z,2.20
2023-02-11T03:13:17.869Z,2.17
2023-02-11T03:15:48.958Z,2.18
2023-02-11T03:18:18.590Z,2.17
2023-02-11T03:20:48.687Z,2.15
2023-02-11T03:23:29.468Z,2.14
2023-02-11T03:26:02.862Z,2.10
2023-02-11T03:28:40.411Z,2.09
2023-02-11T03:31:25.333Z,2.17
2023-02-11T03:34:09.961Z,2.20
2023-02-11T03:36:45.904Z,2.22
2023-02-11T03:39:16.571Z,2.18
2023-02-11T03:41:45.975Z,2.16
2023-02-11T03:44:15.756Z,2.16
2023-02-11T03:46:47.021Z,2.15
2023-02-11T03:49:17.117Z,2.13
2023-02-11T03:51:44.106Z,2.09
2023-02-11T03:54:15.952Z,2.06
2023-02-11T03:56:50.819Z,2.05
2023-02-11T03:59:17.251Z,2.00
2023-02-11T04:01:43.743Z,2.00
2023-02-11T04:04:10.279Z,1.98
2023-02-11T04:06:36.727Z,1.98
2023-02-11T04:09:03.642Z,1.97
2023-02-11T04:11:30.036Z,1.95
2023-02-11T04:13:56.362Z,1.90
2023-02-11T04:16:22.746Z,1.86
2023-02-11T04:18:49.423Z,1.88
2023-02-11T04:21:15.735Z,1.94
2023-02-11T04:23:42.053Z,1.94
2023-02-11T04:26:08.443Z,1.94
2023-02-11T04:28:35.854Z,1.93
2023-02-11T04:31:02.351Z,1.85
2023-02-11T04:33:28.657Z,1.95
2023-02-11T04:35:54.977Z,1.95
2023-02-11T04:38:23.837Z,1.96
2023-02-11T04:40:51.206Z,2.01
2023-02-11T04:43:17.635Z,2.00
2023-02-11T04:45:43.954Z,2.06
2023-02-11T04:48:10.245Z,2.08
2023-02-11T04:50:36.526Z,2.09
2023-02-11T04:53:02.952Z,2.12
2023-02-11T04:55:29.245Z,2.16
2023-02-11T04:57:55.602Z,2.11
2023-02-11T05:00:22.070Z,2.12
2023-02-11T05:02:48.353Z,2.16
2023-02-11T05:05:14.695Z,2.22
2023-02-11T05:07:41.094Z,2.19
2023-02-11T05:10:07.650Z,2.16
2023-02-11T05:12:34.033Z,2.19
2023-02-11T05:15:00.382Z,2.20
2023-02-11T05:17:26.746Z,2.17
2023-02-11T05:19:53.071Z,2.17
2023-02-11T05:22:19.686Z,2.21
2023-02-11T05:24:45.985Z,2.20
2023-02-11T05:27:12.283Z,2.17
2023-02-11T05:29:38.710Z,2.16
2023-02-11T05:32:05.119Z,2.12
2023-02-11T05:34:31.439Z,2.13
2023-02-11T05:36:57.776Z,2.17
2023-02-11T05:39:24.113Z,2.15
2023-02-11T05:41:50.515Z,2.17
2023-02-11T05:44:16.812Z,2.21
2023-02-11T05:46:43.302Z,2.20
2023-02-11T05:49:09.742Z,2.25
2023-02-11T05:51:36.104Z,2.22
2023-02-11T05:54:02.445Z,2.24
2023-02-11T05:56:28.783Z,2.24
2023-02-11T05:58:55.112Z,2.18
2023-02-11T06:01:21.409Z,2.15
2023-02-11T06:03:49.935Z,2.21
2023-02-11T06:06:16.330Z,2.18
2023-02-11T06:08:42.973Z,2.20
2023-02-11T06:11:09.730Z,2.22
2023-02-11T06:13:36.328Z,2.19
2023-02-11T06:16:03.189Z,2.19
2023-02-11T06:18:29.852Z,2.12
2023-02-11T06:20:56.562Z,2.20
2023-02-11T06:23:23.268Z,2.24
2023-02-11T06:25:50.155Z,2.19
2023-02-11T06:28:16.651Z,2.24
2023-02-11T06:30:43.137Z,2.22
2023-02-11T06:33:09.473Z,2.19
2023-02-11T06:35:39.064Z,2.18
2023-02-11T06:38:05.386Z,2.19
2023-02-11T06:40:31.723Z,2.19
2023-02-11T06:42:58.109Z,2.17
2023-02-11T06:45:24.458Z,2.14
2023-02-11T06:47:52.276Z,2.19
2023-02-11T06:50:18.761Z,2.15
2023-02-11T06:52:45.094Z,2.13
2023-02-11T06:55:11.479Z,2.07
2023-02-11T06:57:37.861Z,2.07
2023-02-11T07:00:05.801Z,2.01
2023-02-11T07:02:32.307Z,2.07
2023-02-11T07:04:58.602Z,2.09
2023-02-11T07:07:24.928Z,2.06
2023-02-11T07:09:51.278Z,2.12
2023-02-11T07:12:17.583Z,2.11
2023-02-11T07:14:43.999Z,2.10
2023-02-11T07:17:10.356Z,2.05
2023-02-11T07:19:36.656Z,2.06
2023-02-11T07:22:03.000Z,2.16
2023-02-11T07:24:29.345Z,2.14
2023-02-11T07:26:55.678Z,2.21
2023-02-11T07:29:22.138Z,2.22
2023-02-11T07:31:48.833Z,2.31
2023-02-11T07:34:15.305Z,2.37
2023-02-11T07:36:43.616Z,2.40
2023-02-11T07:39:09.908Z,2.41
2023-02-11T07:41:37.981Z,2.49
2023-02-11T07:44:04.788Z,2.51
2023-02-11T07:46:31.210Z,2.53
2023-02-11T07:48:57.851Z,2.46
2023-02-11T07:51:26.976Z,2.47
2023-02-11T07:53:55.242Z,2.47
2023-02-11T07:56:22.400Z,2.46
2023-02-11T07:58:49.743Z,2.57
2023-02-11T08:01:18.855Z,2.66
2023-02-11T08:03:48.315Z,2.78
2023-02-11T08:06:17.426Z,2.77
2023-02-11T08:08:44.382Z,2.80
2023-02-11T08:11:13.537Z,2.89
2023-02-11T08:13:40.331Z,3.00
2023-02-11T08:16:08.009Z,3.07
2023-02-11T08:18:35.644Z,3.18
2023-02-11T08:21:11.052Z,3.18
2023-02-11T08:23:42.214Z,3.25
2023-02-11T08:26:15.196Z,3.28
2023-02-11T08:28:43.758Z,3.25
2023-02-11T08:31:16.518Z,3.24
2023-02-11T08:33:43.508Z,3.24
2023-02-11T08:36:15.910Z,3.25
2023-02-11T08:38:42.529Z,3.29
2023-02-11T08:41:09.130Z,3.34
2023-02-11T08:43:36.739Z,3.31
2023-02-11T08:46:03.688Z,3.38
2023-02-11T08:48:30.142Z,3.50
2023-02-11T08:50:57.067Z,3.67
2023-02-11T08:53:23.559Z,3.87
2023-02-11T08:55:54.504Z,3.94
2023-02-11T08:58:22.114Z,4.14
2023-02-11T09:00:49.555Z,4.25
2023-02-11T09:03:16.838Z,4.44
2023-02-11T09:05:44.421Z,4.57
2023-02-11T09:08:11.416Z,4.69
2023-02-11T09:10:38.502Z,4.80
2023-02-11T09:13:05.160Z,4.95
2023-02-11T09:15:31.656Z,4.91
2023-02-11T09:18:04.365Z,4.94
2023-02-11T09:20:30.766Z,5.03
2023-02-11T09:22:59.662Z,5.08
2023-02-11T09:25:26.247Z,5.13
2023-02-11T09:27:53.717Z,5.24
2023-02-11T09:30:20.126Z,5.35
2023-02-11T09:32:46.475Z,5.50
2023-02-11T09:35:15.433Z,5.78
2023-02-11T09:37:41.736Z,5.97
2023-02-11T09:40:11.883Z,5.88
2023-02-11T09:46:16.429Z,5.83
2023-02-11T09:52:36.206Z,6.16
2023-02-11T09:55:27.093Z,6.10
2023-02-11T09:58:00.402Z,6.12
2023-02-11T10:00:53.614Z,6.05
2023-02-11T10:03:44.886Z,5.99
2023-02-11T10:06:25.144Z,6.04
2023-02-11T10:09:11.530Z,6.00
2023-02-11T10:12:25.189Z,6.07
2023-02-11T10:15:24.488Z,6.18
2023-02-11T10:18:10.485Z,6.22
2023-02-11T10:20:45.312Z,6.18
2023-02-11T10:23:25.655Z,6.17
2023-02-11T10:25:57.385Z,6.17
2023-02-11T10:28:30.407Z,6.21
2023-02-11T10:31:10.709Z,6.21
2023-02-11T10:33:47.702Z,6.20
2023-02-11T10:36:17.605Z,6.05
2023-02-11T10:38:44.273Z,5.90
2023-02-11T10:41:18.146Z,5.82
2023-02-11T10:43:45.772Z,5.79
2023-02-11T10:46:19.110Z,5.83
2023-02-11T10:48:55.534Z,5.87
2023-02-11T10:51:27.289Z,5.86
2023-02-11T10:54:14.329Z,5.72
2023-02-11T10:56:45.748Z,5.57
2023-02-11T10:59:29.229Z,5.50
2023-02-11T11:02:34.589Z,5.32
2023-02-11T11:05:06.697Z,5.29
2023-02-11T11:07:34.194Z,5.38
2023-02-11T11:10:25.036Z,5.47
2023-02-11T11:12:51.345Z,5.41
2023-02-11T11:15:24.007Z,5.43
2023-02-11T11:18:22.025Z,5.42
2023-02-11T11:20:59.573Z,5.40
2023-02-11T11:23:27.972Z,5.39
2023-02-11T11:26:12.128Z,5.44
2023-02-11T11:28:42.678Z,5.46
2023-02-11T11:31:15.676Z,5.53
2023-02-11T11:33:44.542Z,5.59
2023-02-11T11:36:17.019Z,5.63
2023-02-11T11:38:48.976Z,5.78
2023-02-11T11:41:31.004Z,5.92
2023-02-11T11:44:04.232Z,6.05
2023-02-11T11:46:32.231Z,6.10
2023-02-11T11:49:20.669Z,6.17
2023-02-11T11:52:09.717Z,6.11
2023-02-11T11:54:36.900Z,6.22
2023-02-11T11:57:12.462Z,6.26
2023-02-11T11:59:38.808Z,6.25
2023-02-11T12:02:35.315Z,6.23
2023-02-11T12:05:09.482Z,6.15
2023-02-11T12:07:56.331Z,6.03
2023-02-11T12:10:51.764Z,5.92
2023-02-11T12:13:30.526Z,5.81
2023-02-11T12:16:34.571Z,5.85
2023-02-11T12:19:41.294Z,5.82
2023-02-11T12:22:33.978Z,5.79
2023-02-11T12:25:08.393Z,5.87
2023-02-11T12:28:22.756Z,5.91
2023-02-11T12:31:19.883Z,5.97
2023-02-11T12:33:55.138Z,6.03
2023-02-11T12:36:37.454Z,6.10
2023-02-11T12:39:23.139Z,6.09
2023-02-11T12:42:35.915Z,6.07
2023-02-11T12:45:11.002Z,6.00
2023-02-11T12:47:59.303Z,6.04
2023-02-11T12:50:44.514Z,5.99
2023-02-11T12:53:22.522Z,5.90
2023-02-11T12:55:55.163Z,5.80
2023-02-11T12:58:35.618Z,5.94
2023-02-11T13:01:16.954Z,5.94
2023-02-11T13:03:56.410Z,6.00
2023-02-11T13:06:37.337Z,5.98
2023-02-11T13:09:11.148Z,6.03
2023-02-11T13:11:42.367Z,6.10
2023-02-11T13:14:30.437Z,6.19
2023-02-11T13:16:58.462Z,6.22
2023-02-11T13:19:34.413Z,6.29
2023-02-11T13:22:24.122Z,6.30
2023-02-11T13:25:06.083Z,6.24
2023-02-11T13:28:01.864Z,6.27
2023-02-11T13:30:36.586Z,6.31
2023-02-11T13:33:18.190Z,6.37
2023-02-11T13:36:09.851Z,6.46
2023-02-11T13:38:39.373Z,6.53
2023-02-11T13:41:40.452Z,6.54
2023-02-11T13:44:09.547Z,6.54
2023-02-11T13:46:53.739Z,6.56
2023-02-11T13:49:24.600Z,6.53
2023-02-11T13:51:52.239Z,6.49
2023-02-11T13:54:29.837Z,6.61
2023-02-11T13:57:52.493Z,6.61
2023-02-11T14:00:36.862Z,6.59
2023-02-11T14:03:44.070Z,6.55
2023-02-11T14:06:28.984Z,6.51
2023-02-11T14:09:19.754Z,6.53
2023-02-11T14:12:20.377Z,6.55
2023-02-11T14:15:07.722Z,6.51
2023-02-11T14:17:34.810Z,6.52
2023-02-11T14:20:04.587Z,6.47
2023-02-11T14:22:43.852Z,6.38
2023-02-11T14:25:23.161Z,6.36
2023-02-11T14:27:55.207Z,6.31
2023-02-11T14:30:59.348Z,6.24
2023-02-11T14:33:50.149Z,6.12
2023-02-11T14:36:49.067Z,6.18
2023-02-11T14:39:21.277Z,6.19
2023-02-11T14:41:50.835Z,6.15
2023-02-11T14:44:25.158Z,6.15
2023-02-11T14:46:56.483Z,6.17
2023-02-11T14:49:41.384Z,6.12
2023-02-11T14:52:25.634Z,6.12
2023-02-11T14:55:06.030Z,6.08
2023-02-11T14:57:33.349Z,6.09
2023-02-11T15:00:13.723Z,6.17
2023-02-11T15:02:40.191Z,6.16
2023-02-11T15:05:20.024Z,6.15
2023-02-11T15:07:49.530Z,6.18
2023-02-11T15:10:20.967Z,6.12
2023-02-11T15:12:50.292Z,6.07
2023-02-11T15:15:17.063Z,6.06
2023-02-11T15:17:44.363Z,6.14
2023-02-11T15:20:31.936Z,6.15
2023-02-11T15:23:04.812Z,6.13
2023-02-11T15:25:34.039Z,6.09
2023-02-11T15:28:00.773Z,6.05
2023-02-11T15:30:30.963Z,6.02
2023-02-11T15:33:00.282Z,6.03
2023-02-11T15:35:39.696Z,5.99
2023-02-11T15:38:07.231Z,5.96
2023-02-11T15:40:36.150Z,5.96
2023-02-11T15:43:08.162Z,5.91
2023-02-11T15:45:35.769Z,5.86
2023-02-11T15:48:26.745Z,5.88
2023-02-11T15:51:01.330Z,5.84
2023-02-11T15:53:36.296Z,5.82
2023-02-11T15:56:34.801Z,5.89
2023-02-11T15:59:13.339Z,5.85
2023-02-11T16:01:40.854Z,5.89
2023-02-11T16:04:08.769Z,5.90
2023-02-11T16:06:42.729Z,5.87
2023-02-11T16:09:10.010Z,5.89
2023-02-11T16:11:48.726Z,5.89
2023-02-11T16:14:23.019Z,5.85
2023-02-11T16:16:53.298Z,5.89
2023-02-11T16:19:23.582Z,5.80
2023-02-11T16:21:53.390Z,5.80
2023-02-11T16:24:28.779Z,5.82
2023-02-11T16:26:59.289Z,5.77
2023-02-11T16:29:36.923Z,5.79
2023-02-11T16:32:22.243Z,5.81
2023-02-11T16:34:49.268Z,5.75
2023-02-11T16:37:15.577Z,5.79
2023-02-11T16:39:42.010Z,5.75
2023-02-11T16:42:09.680Z,5.75
2023-02-11T16:44:35.994Z,5.72
2023-02-11T16:47:04.205Z,5.78
2023-02-11T16:49:34.439Z,5.77
2023-02-11T16:52:05.757Z,5.72
2023-02-11T16:54:32.543Z,5.78
2023-02-11T16:56:59.240Z,5.77
2023-02-11T16:59:25.710Z,5.74
2023-02-11T17:01:53.573Z,5.68
2023-02-11T17:04:26.139Z,5.74
2023-02-11T17:06:52.599Z,5.78
2023-02-11T17:09:21.439Z,5.76
2023-02-11T17:11:48.754Z,5.76
2023-02-11T17:14:15.205Z,5.70
2023-02-11T17:16:42.512Z,5.72
2023-02-11T17:19:13.183Z,5.67
2023-02-11T17:21:44.234Z,5.69
2023-02-11T17:24:11.358Z,5.71
2023-02-11T17:26:38.844Z,5.74
2023-02-11T17:29:06.634Z,5.71
2023-02-11T17:31:33.359Z,5.70
2023-02-11T17:33:59.769Z,5.72
2023-02-11T17:36:26.088Z,5.69
2023-02-11T17:38:52.563Z,5.70
2023-02-11T17:41:18.929Z,5.67
2023-02-11T17:43:45.242Z,5.65
2023-02-11T17:46:12.976Z,5.62
2023-02-11T17:48:39.518Z,5.57
2023-02-11T17:51:19.199Z,5.57
2023-02-11T17:53:46.584Z,5.62
2023-02-11T17:56:13.029Z,5.67
2023-02-11T17:58:39.471Z,5.72
2023-02-11T18:01:05.917Z,5.70
2023-02-11T18:03:32.972Z,5.68
2023-02-11T18:06:00.391Z,5.67
2023-02-11T18:08:26.727Z,5.67
2023-02-11T18:10:53.184Z,5.69
2023-02-11T18:13:19.475Z,5.67
2023-02-11T18:15:45.915Z,5.66
2023-02-11T18:18:12.445Z,5.70
2023-02-11T18:20:40.542Z,5.75
2023-02-11T18:23:06.878Z,5.68
2023-02-11T18:25:33.476Z,5.61
2023-02-11T18:27:59.840Z,5.63
2023-02-11T18:30:26.315Z,5.63
2023-02-11T18:32:56.221Z,5.74
2023-02-11T18:35:25.855Z,5.75
2023-02-11T18:37:52.342Z,5.77
2023-02-11T18:40:21.045Z,5.76
2023-02-11T18:42:49.548Z,5.74
2023-02-11T18:45:15.902Z,5.75
2023-02-11T18:47:42.254Z,5.69
2023-02-11T18:50:13.663Z,5.70
2023-02-11T18:52:40.056Z,5.72
2023-02-11T18:55:06.878Z,5.71
2023-02-11T18:57:33.498Z,5.74
2023-02-11T19:00:02.297Z,5.76
2023-02-11T19:02:29.274Z,5.78
2023-02-11T19:04:55.652Z,5.76
2023-02-11T19:07:22.037Z,5.75
2023-02-11T19:09:51.079Z,5.74
2023-02-11T19:12:17.394Z,5.74
2023-02-11T19:14:43.673Z,5.71
2023-02-11T19:17:12.367Z,5.75
2023-02-11T19:19:38.886Z,5.79
2023-02-11T19:22:10.565Z,5.78
2023-02-11T19:24:37.864Z,5.70
2023-02-11T19:27:04.806Z,5.69
2023-02-11T19:29:35.083Z,5.71
2023-02-11T19:32:03.976Z,5.74
2023-02-11T19:34:40.736Z,5.70
2023-02-11T19:37:14.741Z,5.72
2023-02-11T19:39:43.132Z,5.72
2023-02-11T19:42:12.891Z,5.67
2023-02-11T19:44:39.319Z,5.76
2023-02-11T19:47:06.815Z,5.79
2023-02-11T19:49:36.249Z,5.79
2023-02-11T19:52:02.584Z,5.75
2023-02-11T19:54:31.508Z,5.73
2023-02-11T19:56:58.639Z,5.69
2023-02-11T19:59:30.273Z,5.79
2023-02-11T20:01:58.258Z,5.80
2023-02-11T20:04:25.102Z,5.79
2023-02-11T20:06:51.536Z,5.76
2023-02-11T20:09:18.007Z,5.74
2023-02-11T20:11:44.646Z,5.74
2023-02-11T20:14:15.066Z,5.72
2023-02-11T20:16:48.765Z,5.73
2023-02-11T20:19:22.332Z,5.73
2023-02-11T20:21:52.216Z,5.77
2023-02-11T20:24:19.798Z,5.69
2023-02-11T20:26:48.136Z,5.75
2023-02-11T20:29:16.420Z,5.76
2023-02-11T20:31:43.070Z,5.70
2023-02-11T20:34:09.915Z,5.68
2023-02-11T20:36:37.934Z,5.70
2023-02-11T20:39:05.857Z,5.69
2023-02-11T20:41:48.235Z,5.77
2023-02-11T20:44:14.610Z,5.78
2023-02-11T20:46:43.824Z,5.77
2023-02-11T20:49:12.464Z,5.75
2023-02-11T20:51:39.608Z,5.76
2023-02-11T20:54:06.608Z,5.79
2023-02-11T20:56:35.178Z,5.84
2023-02-11T20:59:03.693Z,5.75
2023-02-11T21:01:33.515Z,5.75
2023-02-11T21:04:02.609Z,5.68
2023-02-11T21:06:34.604Z,5.65
2023-02-11T21:09:01.237Z,5.60
2023-02-11T21:11:27.583Z,5.58
2023-02-11T21:13:53.990Z,5.64
2023-02-11T21:16:20.755Z,5.68
2023-02-11T21:18:47.513Z,5.68
2023-02-11T21:21:13.868Z,5.63
2023-02-11T21:23:40.194Z,5.56
2023-02-11T21:26:07.652Z,5.49
2023-02-11T21:28:34.472Z,5.52
2023-02-11T21:31:01.434Z,5.47
2023-02-11T21:33:28.662Z,5.45
2023-02-11T21:35:59.392Z,5.41
2023-02-11T21:38:26.758Z,5.44
2023-02-11T21:40:53.492Z,5.36
2023-02-11T21:43:20.477Z,5.33
2023-02-11T21:45:49.094Z,5.30
2023-02-11T21:48:17.217Z,5.23
2023-02-11T21:50:46.093Z,5.14
2023-02-11T21:53:13.395Z,5.05
2023-02-11T21:55:40.297Z,4.99
2023-02-11T21:58:07.519Z,4.94
2023-02-11T22:00:34.284Z,4.92
2023-02-11T22:03:00.847Z,4.91
2023-02-11T22:05:27.479Z,4.89
2023-02-11T22:07:53.805Z,4.89
2023-02-11T22:10:20.539Z,4.92
2023-02-11T22:12:46.874Z,4.91
2023-02-11T22:15:13.332Z,4.89
2023-02-11T22:17:39.817Z,4.92
2023-02-11T22:20:07.889Z,4.94
2023-02-11T22:22:35.236Z,5.00
2023-02-11T22:25:02.080Z,5.17
2023-02-11T22:27:28.401Z,5.26
2023-02-11T22:29:54.741Z,5.36
2023-02-11T22:32:21.104Z,5.39
2023-02-11T22:34:47.399Z,5.43
2023-02-11T22:37:14.151Z,5.47
2023-02-11T22:39:41.888Z,5.58
2023-02-11T22:42:08.871Z,5.63
2023-02-11T22:44:36.554Z,5.61
2023-02-11T22:47:02.902Z,5.57
2023-02-11T22:49:29.213Z,5.52
2023-02-11T22:51:55.608Z,5.55
2023-02-11T22:54:21.936Z,5.55
2023-02-11T22:56:51.099Z,5.50
2023-02-11T22:59:17.818Z,5.47
2023-02-11T23:01:45.518Z,5.42
2023-02-11T23:04:14.267Z,5.50
2023-02-11T23:06:40.600Z,5.51
2023-02-11T23:09:09.024Z,5.50
2023-02-11T23:11:36.043Z,5.47
2023-02-11T23:14:02.408Z,5.46
2023-02-11T23:16:31.670Z,5.42
2023-02-11T23:19:04.795Z,5.38
2023-02-11T23:21:33.894Z,5.38
2023-02-11T23:24:18.421Z,5.43
2023-02-11T23:26:44.862Z,5.44
2023-02-11T23:29:12.215Z,5.41
2023-02-11T23:31:40.435Z,5.39
2023-02-11T23:34:07.869Z,5.38
2023-02-11T23:36:34.216Z,5.39
2023-02-11T23:39:00.846Z,5.41
2023-02-11T23:41:27.409Z,5.39
2023-02-11T23:43:56.755Z,5.34
2023-02-11T23:46:25.179Z,5.29
2023-02-11T23:48:51.948Z,5.25
2023-02-11T23:51:18.774Z,5.23
2023-02-11T23:53:49.278Z,5.24
2023-02-11T23:56:24.040Z,5.20
2023-02-11T23:58:53.398Z,5.20
